createdAt,value
2023-09-28T00:01:41.300Z,8.45
2023-09-28T00:04:08.559Z,9.20
2023-09-28T00:06:35.668Z,8.98
2023-09-28T00:09:02.589Z,8.57
2023-09-28T00:11:29.428Z,8.73
2023-09-28T00:13:56.465Z,8.48
2023-09-28T00:16:23.706Z,8.60
2023-09-28T00:18:50.533Z,8.07
2023-09-28T00:21:17.320Z,9.02
2023-09-28T00:23:44.240Z,8.35
2023-09-28T00:26:12.334Z,9.18
2023-09-28T00:28:41.450Z,6.85
2023-09-28T00:31:08.395Z,9.50
2023-09-28T00:33:35.336Z,7.82
2023-09-28T00:36:02.182Z,8.02
2023-09-28T00:38:29.070Z,7.18
2023-09-28T00:40:56.028Z,8.45
2023-09-28T00:43:31.101Z,7.35
2023-09-28T00:45:58.575Z,9.15
2023-09-28T00:48:26.287Z,8.68
2023-09-28T00:50:53.728Z,8.20
2023-09-28T00:53:22.706Z,8.35
2023-09-28T00:55:49.995Z,8.13
2023-09-28T00:58:17.162Z,9.05
2023-09-28T01:00:44.127Z,10.82
2023-09-28T01:03:12.674Z,8.57
2023-09-28T01:05:41.932Z,8.23
2023-09-28T01:08:08.953Z,8.63
2023-09-28T01:10:37.749Z,7.88
2023-09-28T01:13:12.554Z,8.43
2023-09-28T01:15:44.187Z,8.23
2023-09-28T01:18:18.275Z,7.40
2023-09-28T01:20:46.634Z,8.45
2023-09-28T01:23:15.077Z,7.72
2023-09-28T01:25:42.422Z,9.15
2023-09-28T01:28:11.619Z,8.93
2023-09-28T01:30:39.244Z,8.98
2023-09-28T01:33:10.522Z,7.45
2023-09-28T01:35:37.718Z,7.43
2023-09-28T01:38:10.654Z,7.15
2023-09-28T01:40:41.836Z,7.88
2023-09-28T01:43:09.042Z,7.35
2023-09-28T01:45:36.126Z,8.45
2023-09-28T01:48:06.460Z,7.80
2023-09-28T01:50:34.288Z,8.95
2023-09-28T01:53:01.671Z,10.90
2023-09-28T01:55:28.552Z,9.40
2023-09-28T01:57:55.416Z,9.63
2023-09-28T02:00:26.232Z,11.65
2023-09-28T02:02:56.280Z,12.35
2023-09-28T02:05:23.674Z,10.55
2023-09-28T02:08:00.358Z,11.32
2023-09-28T02:10:29.772Z,11.20
2023-09-28T02:12:59.433Z,14.13
2023-09-28T02:15:28.662Z,14.13
2023-09-28T02:17:55.580Z,13.40
2023-09-28T02:20:34.159Z,13.30
2023-09-28T02:23:03.257Z,11.43
2023-09-28T02:25:46.350Z,14.85
2023-09-28T02:30:39.888Z,16.42
2023-09-28T02:33:08.176Z,11.75
2023-09-28T02:35:35.090Z,12.10
2023-09-28T02:38:05.103Z,13.43
2023-09-28T02:40:33.230Z,12.35
2023-09-28T02:43:00.281Z,12.32
2023-09-28T02:45:27.104Z,13.98
2023-09-28T02:47:56.144Z,13.50
2023-09-28T02:50:23.707Z,15.10
2023-09-28T02:52:50.837Z,12.90
2023-09-28T02:55:20.276Z,13.38
2023-09-28T02:57:48.295Z,13.50
2023-09-28T03:00:31.930Z,12.60
2023-09-28T03:02:58.998Z,13.30
2023-09-28T03:05:29.485Z,12.02
2023-09-28T03:07:56.379Z,12.30
2023-09-28T03:10:26.244Z,11.73
2023-09-28T03:12:55.652Z,14.50
2023-09-28T03:15:22.501Z,13.02
2023-09-28T03:17:49.575Z,13.52
2023-09-28T03:20:19.044Z,10.10
2023-09-28T03:22:48.522Z,12.07
2023-09-28T03:25:19.619Z,12.85
2023-09-28T03:27:48.863Z,12.00
2023-09-28T03:30:17.281Z,14.18
2023-09-28T03:32:44.694Z,13.85
2023-09-28T03:35:13.154Z,13.15
2023-09-28T03:37:44.039Z,10.95
2023-09-28T03:40:13.167Z,14.50
2023-09-28T03:42:49.811Z,12.60
2023-09-28T03:45:22.225Z,10.13
2023-09-28T03:47:53.822Z,12.07
2023-09-28T03:50:22.749Z,11.88
2023-09-28T03:52:50.048Z,10.43
2023-09-28T03:55:20.027Z,13.02
2023-09-28T03:57:47.959Z,11.73
2023-09-28T04:00:17.347Z,11.23
2023-09-28T04:02:48.466Z,12.90
2023-09-28T04:05:16.629Z,9.90
2023-09-28T04:07:44.704Z,10.00
2023-09-28T04:10:13.141Z,13.10
2023-09-28T04:12:40.354Z,12.25
2023-09-28T04:15:09.142Z,10.93
2023-09-28T04:17:36.513Z,12.68
2023-09-28T04:20:07.688Z,12.55
2023-09-28T04:22:34.651Z,12.70
2023-09-28T04:25:01.517Z,15.68
2023-09-28T04:27:28.594Z,14.10
2023-09-28T04:29:56.049Z,15.02
2023-09-28T04:32:23.090Z,13.82
2023-09-28T04:34:50.323Z,13.90
2023-09-28T04:37:20.542Z,10.25
2023-09-28T04:39:47.556Z,12.20
2023-09-28T04:42:16.460Z,10.70
2023-09-28T04:44:45.585Z,10.13
2023-09-28T04:47:12.874Z,11.18
2023-09-28T04:49:42.053Z,10.07
2023-09-28T04:52:11.589Z,11.95
2023-09-28T04:54:39.348Z,10.88
2023-09-28T04:57:06.581Z,10.82
2023-09-28T04:59:39.932Z,10.60
2023-09-28T05:02:08.073Z,10.23
2023-09-28T05:04:36.429Z,10.15
2023-09-28T05:07:04.139Z,11.20
2023-09-28T05:09:31.220Z,10.40
2023-09-28T05:12:01.913Z,11.40
2023-09-28T05:14:29.550Z,13.43
2023-09-28T05:16:56.558Z,11.98
2023-09-28T05:19:23.859Z,11.68
2023-09-28T05:21:50.869Z,9.90
2023-09-28T05:24:17.811Z,10.95
2023-09-28T05:26:44.661Z,10.68
2023-09-28T05:29:11.980Z,10.82
2023-09-28T05:31:39.239Z,10.77
2023-09-28T05:34:06.599Z,11.82
2023-09-28T05:36:34.206Z,11.52
2023-09-28T05:39:01.048Z,10.05
2023-09-28T05:41:27.890Z,12.48
2023-09-28T05:43:54.924Z,11.60
2023-09-28T05:46:21.941Z,10.65
2023-09-28T05:48:49.208Z,11.05
2023-09-28T05:51:17.265Z,11.75
2023-09-28T05:55:47.666Z,11.77
2023-09-28T05:56:31.294Z,11.32
2023-09-28T05:58:58.210Z,12.77
2023-09-28T06:01:25.623Z,11.55
2023-09-28T06:03:52.708Z,11.02
2023-09-28T06:06:20.631Z,13.57
2023-09-28T06:08:48.325Z,10.82
2023-09-28T06:11:17.038Z,11.02
2023-09-28T06:14:04.926Z,14.45
2023-09-28T06:16:38.553Z,10.82
2023-09-28T06:19:05.525Z,10.95
2023-09-28T06:21:32.384Z,9.70
2023-09-28T06:23:59.305Z,10.85
2023-09-28T06:26:41.059Z,9.55
2023-09-28T06:29:09.840Z,9.90
2023-09-28T06:31:37.882Z,11.00
2023-09-28T06:34:04.965Z,11.80
2023-09-28T06:36:41.977Z,10.70
2023-09-28T06:39:34.543Z,12.43
2023-09-28T06:42:24.184Z,12.48
2023-09-28T06:44:56.492Z,10.55
2023-09-28T06:47:25.909Z,9.27
2023-09-28T06:50:00.443Z,8.85
2023-09-28T06:52:27.661Z,9.32
2023-09-28T06:54:55.118Z,9.13
2023-09-28T06:57:22.003Z,10.30
2023-09-28T06:59:48.906Z,12.38
2023-09-28T07:02:17.034Z,9.70
2023-09-28T07:04:43.862Z,9.82
2023-09-28T07:07:12.128Z,8.88
2023-09-28T07:09:51.018Z,10.18
2023-09-28T07:12:24.298Z,10.35
2023-09-28T07:14:51.258Z,8.75
2023-09-28T07:17:18.096Z,9.93
2023-09-28T07:19:45.230Z,10.05
2023-09-28T07:22:12.647Z,10.13
2023-09-28T07:24:39.421Z,9.05
2023-09-28T07:27:06.248Z,8.32
2023-09-28T07:29:33.945Z,7.65
2023-09-28T07:32:00.988Z,9.68
2023-09-28T07:34:28.232Z,11.93
2023-09-28T07:36:55.107Z,10.30
2023-09-28T07:39:21.903Z,11.88
2023-09-28T07:41:49.205Z,9.70
2023-09-28T07:44:16.201Z,10.20
2023-09-28T07:46:43.150Z,9.55
2023-09-28T07:49:09.969Z,9.55
2023-09-28T07:51:36.787Z,10.45
2023-09-28T07:54:03.751Z,10.25
2023-09-28T07:56:30.659Z,10.65
2023-09-28T07:58:58.814Z,10.82
2023-09-28T08:01:28.019Z,10.65
2023-09-28T08:03:55.142Z,10.07
2023-09-28T08:06:30.776Z,10.45
2023-09-28T08:08:58.409Z,9.27
2023-09-28T08:11:25.606Z,9.32
2023-09-28T08:13:52.528Z,10.32
2023-09-28T08:16:20.870Z,11.35
2023-09-28T08:18:48.205Z,10.00
2023-09-28T08:21:15.020Z,10.07
2023-09-28T08:23:42.658Z,9.15
2023-09-28T08:26:09.844Z,10.40
2023-09-28T08:28:36.770Z,11.68
2023-09-28T08:31:06.710Z,10.05
2023-09-28T08:33:33.633Z,10.05
2023-09-28T08:36:00.499Z,10.52
2023-09-28T08:38:27.407Z,10.43
2023-09-28T08:41:03.633Z,9.15
2023-09-28T08:44:02.866Z,10.75
2023-09-28T08:46:44.646Z,12.10
2023-09-28T08:49:17.314Z,12.50
2023-09-28T08:51:48.587Z,10.38
2023-09-28T08:54:17.700Z,11.05
2023-09-28T08:56:47.511Z,11.05
2023-09-28T08:59:18.054Z,11.05
2023-09-28T09:01:47.387Z,10.77
2023-09-28T09:04:14.279Z,9.82
2023-09-28T09:06:43.340Z,11.00
2023-09-28T09:09:16.494Z,11.65
2023-09-28T09:11:51.505Z,10.65
2023-09-28T09:14:18.928Z,10.70
2023-09-28T09:16:47.219Z,10.55
2023-09-28T09:19:15.863Z,9.98
2023-09-28T09:21:45.439Z,10.77
2023-09-28T09:24:20.286Z,10.30
2023-09-28T09:26:48.795Z,10.60
2023-09-28T09:29:17.669Z,12.68
2023-09-28T09:31:49.029Z,12.27
2023-09-28T09:34:22.913Z,10.73
2023-09-28T09:36:58.561Z,12.57
2023-09-28T09:39:27.652Z,10.70
2023-09-28T09:41:55.112Z,10.35
2023-09-28T09:44:23.873Z,10.57
2023-09-28T09:46:54.085Z,12.13
2023-09-28T09:49:22.545Z,12.55
2023-09-28T09:51:49.658Z,11.68
2023-09-28T09:54:17.858Z,12.18
2023-09-28T09:56:49.764Z,13.68
2023-09-28T09:59:28.086Z,13.25
2023-09-28T10:01:55.448Z,11.75
2023-09-28T10:04:25.237Z,11.18
2023-09-28T10:06:53.999Z,12.23
2023-09-28T10:09:22.740Z,11.27
2023-09-28T10:11:53.658Z,12.10
2023-09-28T10:14:22.886Z,10.82
2023-09-28T10:16:52.819Z,11.85
2023-09-28T10:19:22.525Z,11.55
2023-09-28T10:21:51.506Z,10.32
2023-09-28T10:24:18.811Z,9.90
2023-09-28T10:26:51.690Z,10.23
2023-09-28T10:29:32.096Z,9.35
2023-09-28T10:32:00.034Z,10.57
2023-09-28T10:34:31.409Z,9.43
2023-09-28T10:37:08.863Z,10.23
2023-09-28T10:39:36.147Z,9.93
2023-09-28T10:42:07.408Z,10.52
2023-09-28T10:44:34.266Z,9.13
2023-09-28T10:47:01.178Z,8.65
2023-09-28T10:49:29.393Z,8.68
2023-09-28T10:51:58.602Z,11.48
2023-09-28T10:54:28.976Z,11.63
2023-09-28T10:56:55.857Z,8.88
2023-09-28T10:59:22.857Z,9.02
2023-09-28T11:01:50.327Z,9.27
2023-09-28T11:04:18.303Z,9.23
2023-09-28T11:06:46.197Z,7.97
2023-09-28T11:09:15.574Z,7.88
2023-09-28T11:11:42.522Z,8.18
2023-09-28T11:14:09.531Z,9.52
2023-09-28T11:16:36.792Z,8.80
2023-09-28T11:19:04.482Z,9.02
2023-09-28T11:21:32.159Z,7.75
2023-09-28T11:23:59.082Z,7.30
2023-09-28T11:26:26.291Z,7.40
2023-09-28T11:28:55.861Z,6.93
2023-09-28T11:31:22.873Z,6.78
2023-09-28T11:33:50.475Z,6.28
2023-09-28T11:36:18.232Z,5.47
2023-09-28T11:38:46.660Z,6.25
2023-09-28T11:41:15.296Z,6.10
2023-09-28T11:43:48.518Z,7.70
2023-09-28T11:46:33.888Z,6.20
2023-09-28T11:49:12.669Z,5.10
2023-09-28T11:51:40.891Z,5.07
2023-09-28T11:54:13.591Z,5.65
2023-09-28T11:56:46.853Z,5.78
2023-09-28T11:59:17.315Z,5.15
2023-09-28T12:01:48.772Z,5.82
2023-09-28T12:04:16.394Z,4.38
2023-09-28T12:06:44.799Z,5.97
2023-09-28T12:09:11.714Z,5.20
2023-09-28T12:11:39.331Z,5.20
2023-09-28T12:14:06.593Z,4.43
2023-09-28T12:16:34.327Z,4.43
2023-09-28T12:19:01.390Z,8.88
2023-09-28T12:21:28.545Z,6.05
2023-09-28T12:23:57.499Z,4.15
2023-09-28T12:26:24.497Z,5.57
2023-09-28T12:28:53.601Z,4.45
2023-09-28T12:31:20.523Z,5.43
2023-09-28T12:33:47.535Z,4.22
2023-09-28T12:36:14.611Z,5.35
2023-09-28T12:38:42.601Z,4.50
2023-09-28T12:41:10.875Z,4.78
2023-09-28T12:43:37.990Z,4.70
2023-09-28T12:46:08.866Z,4.40
2023-09-28T12:48:35.855Z,5.03
2023-09-28T12:51:02.713Z,4.72
2023-09-28T12:53:33.768Z,4.72
2023-09-28T12:56:00.698Z,4.82
2023-09-28T12:58:27.656Z,4.70
2023-09-28T13:00:57.077Z,5.63
2023-09-28T13:03:30.552Z,4.50
2023-09-28T13:06:04.628Z,4.93
2023-09-28T13:08:32.827Z,4.57
2023-09-28T13:10:59.942Z,6.63
2023-09-28T13:13:26.788Z,4.03
2023-09-28T13:15:53.559Z,4.28
2023-09-28T13:18:21.838Z,3.85
2023-09-28T13:20:48.675Z,5.05
2023-09-28T13:23:16.561Z,5.82
2023-09-28T13:25:44.106Z,4.40
2023-09-28T13:28:12.010Z,7.18
2023-09-28T13:30:41.894Z,5.30
2023-09-28T13:33:10.920Z,4.78
2023-09-28T13:35:38.322Z,4.57
2023-09-28T13:38:05.651Z,8.52
2023-09-28T13:40:36.704Z,5.07
2023-09-28T13:43:08.526Z,4.53
2023-09-28T13:45:36.004Z,4.30
2023-09-28T13:48:04.585Z,4.07
2023-09-28T13:50:33.324Z,5.07
2023-09-28T13:53:00.396Z,5.53
2023-09-28T13:55:27.314Z,4.63
2023-09-28T13:57:54.684Z,4.70
2023-09-28T14:00:41.619Z,4.95
2023-09-28T14:03:08.884Z,4.50
2023-09-28T14:05:36.841Z,5.85
2023-09-28T14:08:04.858Z,4.53
2023-09-28T14:10:32.572Z,4.53
2023-09-28T14:12:59.440Z,5.10
2023-09-28T14:15:26.572Z,4.35
2023-09-28T14:17:54.929Z,6.05
2023-09-28T14:20:22.024Z,4.82
2023-09-28T14:22:49.873Z,4.90
2023-09-28T14:25:18.148Z,4.57
2023-09-28T14:27:48.653Z,5.28
2023-09-28T14:30:17.349Z,5.45
2023-09-28T14:32:45.800Z,5.45
2023-09-28T14:35:13.857Z,4.13
2023-09-28T14:37:40.911Z,4.78
2023-09-28T14:40:16.868Z,5.72
2023-09-28T14:42:46.445Z,5.68
2023-09-28T14:45:14.623Z,6.28
2023-09-28T14:47:42.343Z,5.28
2023-09-28T14:50:11.732Z,5.05
2023-09-28T14:52:39.648Z,4.85
2023-09-28T14:55:07.812Z,5.85
2023-09-28T14:57:34.948Z,4.85
2023-09-28T15:00:02.556Z,5.47
2023-09-28T15:02:29.738Z,5.50
2023-09-28T15:04:56.692Z,5.50
2023-09-28T15:07:23.501Z,6.25
2023-09-28T15:09:50.353Z,5.40
2023-09-28T15:12:17.254Z,5.68
2023-09-28T15:14:44.138Z,5.03
2023-09-28T15:17:11.082Z,5.13
2023-09-28T15:19:38.111Z,5.93
2023-09-28T15:22:05.045Z,6.05
2023-09-28T15:24:32.967Z,6.35
2023-09-28T15:26:59.968Z,5.57
2023-09-28T15:29:28.157Z,5.82
2023-09-28T15:31:55.075Z,6.28
2023-09-28T15:34:21.966Z,6.25
2023-09-28T15:36:51.548Z,6.78
2023-09-28T15:39:18.378Z,6.68
2023-09-28T15:41:45.914Z,7.43
2023-09-28T15:44:12.797Z,6.25
2023-09-28T15:46:40.480Z,6.85
2023-09-28T15:49:07.439Z,5.93
2023-09-28T15:51:34.658Z,6.72
2023-09-28T15:54:01.832Z,7.00
2023-09-28T15:56:29.016Z,6.03
2023-09-28T15:58:56.402Z,7.18
2023-09-28T16:01:24.353Z,6.47
2023-09-28T16:03:55.021Z,7.18
2023-09-28T16:06:24.276Z,7.30
2023-09-28T16:08:52.105Z,6.75
2023-09-28T16:11:20.335Z,6.63
2023-09-28T16:13:47.816Z,7.65
2023-09-28T16:16:14.844Z,7.85
2023-09-28T16:18:41.884Z,6.28
2023-09-28T16:21:08.748Z,7.22
2023-09-28T16:23:36.096Z,6.35
2023-09-28T16:26:03.366Z,6.78
2023-09-28T16:28:30.229Z,6.05
2023-09-28T16:30:57.515Z,6.68
2023-09-28T16:33:24.389Z,10.18
2023-09-28T16:35:51.836Z,6.53
2023-09-28T16:38:18.836Z,5.65
2023-09-28T16:40:45.676Z,6.97
2023-09-28T16:43:12.566Z,6.13
2023-09-28T16:45:39.368Z,6.82
2023-09-28T16:48:07.353Z,6.00
2023-09-28T16:50:34.866Z,5.80
2023-09-28T16:53:02.792Z,6.28
2023-09-28T16:55:33.156Z,5.60
2023-09-28T16:58:00.345Z,7.45
2023-09-28T17:00:27.739Z,6.95
2023-09-28T17:02:54.730Z,7.75
2023-09-28T17:05:21.796Z,6.13
2023-09-28T17:07:48.732Z,7.72
2023-09-28T17:10:19.097Z,7.65
2023-09-28T17:12:47.040Z,7.10
2023-09-28T17:15:14.051Z,8.60
2023-09-28T17:17:41.901Z,8.05
2023-09-28T17:20:09.685Z,7.75
2023-09-28T17:22:36.842Z,7.72
2023-09-28T17:25:03.990Z,7.85
2023-09-28T17:27:32.676Z,9.15
2023-09-28T17:30:00.895Z,17.77
2023-09-28T17:32:27.896Z,14.52
2023-09-28T17:34:55.756Z,12.05
2023-09-28T17:37:22.697Z,8.98
2023-09-28T17:39:51.172Z,9.55
2023-09-28T17:42:18.201Z,8.60
2023-09-28T17:44:45.154Z,8.30
2023-09-28T17:47:12.017Z,9.82
2023-09-28T17:49:39.386Z,9.15
2023-09-28T17:52:06.389Z,8.07
2023-09-28T17:54:33.454Z,7.13
2023-09-28T17:57:00.382Z,7.05
2023-09-28T17:59:27.607Z,8.35
2023-09-28T18:01:54.601Z,8.27
2023-09-28T18:04:21.506Z,8.23
2023-09-28T18:06:48.378Z,6.88
2023-09-28T18:09:15.935Z,9.98
2023-09-28T18:11:43.120Z,7.20
2023-09-28T18:14:10.008Z,7.78
2023-09-28T18:16:38.792Z,6.70
2023-09-28T18:19:05.641Z,5.53
2023-09-28T18:21:32.576Z,6.63
2023-09-28T18:23:59.370Z,6.03
2023-09-28T18:26:28.906Z,7.28
2023-09-28T18:28:57.984Z,8.52
2023-09-28T18:31:25.793Z,7.65
2023-09-28T18:33:55.386Z,7.60
2023-09-28T18:36:23.393Z,7.97
2023-09-28T18:39:03.439Z,8.27
2023-09-28T18:41:35.121Z,7.43
2023-09-28T18:44:02.009Z,8.05
2023-09-28T18:46:29.757Z,8.55
2023-09-28T18:48:56.718Z,9.00
2023-09-28T18:51:23.909Z,8.98
2023-09-28T18:53:51.341Z,7.07
2023-09-28T18:56:18.849Z,6.75
2023-09-28T18:58:45.699Z,7.20
2023-09-28T19:01:13.663Z,9.20
2023-09-28T19:03:42.341Z,8.88
2023-09-28T19:06:16.629Z,7.30
2023-09-28T19:08:44.042Z,7.55
2023-09-28T19:11:11.051Z,9.57
2023-09-28T19:13:37.983Z,8.10
2023-09-28T19:16:08.891Z,7.65
2023-09-28T19:18:36.036Z,8.57
2023-09-28T19:21:03.243Z,8.70
2023-09-28T19:23:30.334Z,9.38
2023-09-28T19:26:00.032Z,9.48
2023-09-28T19:28:27.042Z,11.10
2023-09-28T19:30:53.873Z,9.18
2023-09-28T19:33:22.927Z,8.77
2023-09-28T19:35:49.912Z,9.27
2023-09-28T19:38:17.642Z,8.70
2023-09-28T19:40:45.574Z,9.60
2023-09-28T19:43:12.496Z,8.38
2023-09-28T19:45:44.227Z,8.27
2023-09-28T19:48:11.477Z,8.63
2023-09-28T19:50:41.848Z,9.00
2023-09-28T19:53:10.205Z,9.23
2023-09-28T19:55:39.872Z,8.60
2023-09-28T19:58:06.672Z,9.27
2023-09-28T20:00:34.342Z,8.55
2023-09-28T20:03:01.462Z,9.55
2023-09-28T20:05:28.493Z,9.93
2023-09-28T20:07:55.694Z,8.07
2023-09-28T20:10:23.094Z,9.20
2023-09-28T20:12:50.266Z,8.18
2023-09-28T20:15:17.159Z,9.27
2023-09-28T20:17:44.135Z,9.18
2023-09-28T20:20:11.765Z,8.65
2023-09-28T20:22:50.236Z,8.88
2023-09-28T20:25:21.067Z,8.73
2023-09-28T20:27:48.001Z,7.57
2023-09-28T20:30:17.549Z,8.18
2023-09-28T20:32:45.765Z,8.52
2023-09-28T20:35:14.851Z,9.07
2023-09-28T20:37:42.348Z,7.50
2023-09-28T20:40:10.345Z,8.93
2023-09-28T20:42:37.283Z,8.23
2023-09-28T20:45:05.688Z,8.98
2023-09-28T20:47:36.179Z,9.48
2023-09-28T20:50:05.372Z,11.88
2023-09-28T20:52:32.604Z,9.23
2023-09-28T20:54:59.630Z,9.25
2023-09-28T20:57:27.094Z,7.55
2023-09-28T20:59:57.306Z,7.80
2023-09-28T21:02:24.529Z,7.72
2023-09-28T21:04:52.150Z,7.57
2023-09-28T21:07:19.103Z,9.80
2023-09-28T21:09:46.359Z,9.77
2023-09-28T21:12:13.295Z,8.15
2023-09-28T21:14:40.144Z,9.63
2023-09-28T21:17:07.047Z,8.10
2023-09-28T21:19:33.925Z,8.10
2023-09-28T21:22:00.788Z,8.68
2023-09-28T21:24:27.729Z,8.30
2023-09-28T21:26:54.709Z,8.43
2023-09-28T21:29:21.835Z,8.48
2023-09-28T21:31:48.872Z,9.57
2023-09-28T21:34:15.771Z,10.20
2023-09-28T21:36:42.609Z,8.30
2023-09-28T21:39:09.471Z,8.43
2023-09-28T21:41:36.422Z,9.15
2023-09-28T21:44:03.355Z,7.97
2023-09-28T21:46:30.414Z,7.72
2023-09-28T21:48:57.427Z,7.55
2023-09-28T21:51:24.494Z,7.40
2023-09-28T21:53:51.486Z,8.35
2023-09-28T21:56:19.001Z,8.32
2023-09-28T21:58:46.576Z,8.18
2023-09-28T22:01:16.477Z,8.38
2023-09-28T22:03:44.696Z,8.43
2023-09-28T22:06:12.498Z,9.15
2023-09-28T22:08:40.034Z,7.93
2023-09-28T22:11:08.933Z,6.60
2023-09-28T22:13:36.770Z,6.97
2023-09-28T22:16:05.463Z,7.47
2023-09-28T22:18:32.878Z,7.63
2023-09-28T22:20:59.873Z,8.50
2023-09-28T22:23:27.036Z,7.25
2023-09-28T22:25:53.905Z,7.15
2023-09-28T22:28:20.795Z,8.55
2023-09-28T22:30:47.613Z,8.07
2023-09-28T22:33:14.677Z,7.85
2023-09-28T22:35:42.238Z,8.20
2023-09-28T22:38:09.137Z,7.00
2023-09-28T22:40:36.010Z,8.05
2023-09-28T22:43:02.892Z,8.18
2023-09-28T22:45:29.865Z,6.55
2023-09-28T22:47:57.084Z,8.60
2023-09-28T22:50:24.221Z,7.70
2023-09-28T22:52:51.058Z,8.20
2023-09-28T22:55:17.945Z,8.43
2023-09-28T22:57:45.418Z,7.28
2023-09-28T23:00:14.191Z,7.85
2023-09-28T23:02:43.164Z,7.80
2023-09-28T23:05:10.792Z,8.75
2023-09-28T23:07:37.761Z,7.32
2023-09-28T23:10:05.369Z,6.72
2023-09-28T23:12:33.432Z,7.90
2023-09-28T23:15:00.619Z,8.85
2023-09-28T23:17:27.777Z,8.13
2023-09-28T23:19:54.831Z,7.82
2023-09-28T23:22:21.705Z,7.57
2023-09-28T23:24:51.860Z,8.20
2023-09-28T23:27:18.883Z,7.75
2023-09-28T23:29:46.412Z,6.85
2023-09-28T23:32:13.267Z,7.50
2023-09-28T23:34:42.874Z,6.28
2023-09-28T23:37:10.043Z,8.75
2023-09-28T23:39:36.931Z,8.00
2023-09-28T23:42:04.013Z,7.25
2023-09-28T23:44:31.057Z,8.32
2023-09-28T23:46:58.039Z,7.60
2023-09-28T23:49:28.448Z,8.23
2023-09-28T23:54:23.566Z,8.63
2023-09-28T23:56:50.863Z,7.78
2023-09-28T23:59:18.588Z,9.50
